首页
METAR-TAF:

METAR-TAF

机场 :

Georgetown Municipal Airport

乔治城, 得克萨斯州, 美国

纬度: 30-41N, 经度: 097-41W, 海拔: 240米

当前天气观测

该预报发布于40分钟前的23:56 UTC
风速11节,风向东南,有时为15节阵风
温度 31°C
湿度 55%
气压 1009 hPa
能見度: 16.1公里
天空无云

METAR: KGTU 202356Z 13011G15KT 10SM CLR 31/21 A2979 RMK AO2 SLP081 T03110211 10328 20306 56012

时间: 19:36 (00:36 UTC)


TAF: 丢失

超过4000个机场的气象观测和天气预报(METAR&TAF报告)。

可查询的气象台以黄色和红色小点在地图上表示。

将鼠标移到小点上方,可查看气象台名称。

然后点击查看天气观测和预报。

如需切换地图:点击带黑十字的绿色按钮放大地图;点击带横线的绿色按钮缩小地图;或者点击绿色箭头查看邻近地区的地图。


METAR-TAF: